Dades meteomassalio
Diari Summary for Gener 15, 2017 Units:  Metric    English   Both
« Previous Day
Next Day »
Diari Semanal Mensual Anual Personalitzat
  Maxima: Minima: Mijana:
Temperatura: -17.8 °C -15.6 °C -14.1 °C
Rosada: -17.8 °C -17.4 °C -16.6 °C
Humitat: Humidity % 52 % 73 %
Velocitat del vent: 0 km/h 26.9 km/h 59.4 km/h
Racha vent: 0 km/h - -
Vent:- - NW
Pressio: 0 hPa 34625.2 hPa -
Pluja: 0 mm    
Historical Graphs
 
 
Tabular Data for Gener 15, 2017
Time Temperature Dew Point Pressure Wind Wind Speed Wind Gust Humidity Rainfall Rate (Hourly) solar Conditions
-17.8 °C -17.8 °C 0 hPa Calm     Humidity % 0 mm SolarRadiationWatts/m^2 W/m2 Conditions
00:01 -15.4 °C -17.4 °C 34784.4 hPa NW 33.6 km/h 33.6 km/h 78 % 0 mm 0.0 W/m2 CLR
00:06 -15.4 °C -17.4 °C 34774.2 hPa NW 53.6 km/h 53.6 km/h 78 % 0 mm 0.0 W/m2 CLR
00:11 -15.4 °C -17.3 °C 34774.2 hPa NW 50.7 km/h 50.7 km/h 78 % 0 mm 0.0 W/m2 CLR
00:16 -15.4 °C -17.3 °C 34774.2 hPa NW 65.5 km/h 65.5 km/h 78 % 0 mm 0.0 W/m2 CLR
00:21 -15.4 °C -17.3 °C 34774.2 hPa NW 44.7 km/h 44.7 km/h 79 % 0 mm 0.0 W/m2 CLR
00:26 -15.4 °C -17.3 °C 34774.2 hPa NW 47.6 km/h 47.6 km/h 79 % 0 mm 0.0 W/m2 CLR
00:31 -15.4 °C -17.2 °C 34784.4 hPa NW 44.7 km/h 44.7 km/h 79 % 0 mm 0.0 W/m2 CLR
00:36 -15.4 °C -17.3 °C 34784.4 hPa NW 41.7 km/h 41.7 km/h 79 % 0 mm 0.0 W/m2 CLR
00:41 -15.4 °C -17.3 °C 34784.4 hPa NW 47.6 km/h 47.6 km/h 79 % 0 mm 0.0 W/m2 CLR
00:46 -15.4 °C -17.3 °C 34784.4 hPa NW 50.7 km/h 50.7 km/h 79 % 0 mm 0.0 W/m2 CLR
00:51 -15.4 °C -17.2 °C 34784.4 hPa NW 41.7 km/h 41.7 km/h 80 % 0 mm 0.0 W/m2 CLR
00:56 -15.4 °C -17.2 °C 34774.2 hPa NW 38.8 km/h 38.8 km/h 80 % 0 mm 0.0 W/m2 CLR
01:01 -15.4 °C -17.1 °C 34774.2 hPa NW 41.7 km/h 41.7 km/h 81 % 0 mm 0.0 W/m2 CLR
01:06 -15.4 °C -17.1 °C 34774.2 hPa NW 47.6 km/h 47.6 km/h 81 % 0 mm 0.0 W/m2 CLR
01:11 -15.4 °C -17.2 °C 34774.2 hPa NW 38.8 km/h 38.8 km/h 80 % 0 mm 0.0 W/m2 CLR
01:16 -15.4 °C -17.1 °C 34760.7 hPa NW 50.7 km/h 50.7 km/h 81 % 0 mm 0.0 W/m2 CLR
01:21 -15.4 °C -17.2 °C 34760.7 hPa NW 35.7 km/h 35.7 km/h 80 % 0 mm 0.0 W/m2 CLR
01:26 -15.4 °C -17.2 °C 34760.7 hPa NW 51.8 km/h 51.8 km/h 80 % 0 mm 0.0 W/m2 CLR
01:31 -15.4 °C -17.1 °C 34774.2 hPa WNW 44.7 km/h 44.7 km/h 80 % 0 mm 0.0 W/m2 CLR
01:36 -15.4 °C -17.1 °C 34760.7 hPa NW 47.6 km/h 47.6 km/h 80 % 0 mm 0.0 W/m2 CLR
01:41 -15.4 °C -17.1 °C 34760.7 hPa NW 38.8 km/h 38.8 km/h 80 % 0 mm 0.0 W/m2 CLR
01:46 -15.4 °C -17.2 °C 34760.7 hPa WNW 46.7 km/h 46.7 km/h 80 % 0 mm 0.0 W/m2 CLR
01:51 -15.4 °C -17.1 °C 34760.7 hPa WNW 53.6 km/h 53.6 km/h 80 % 0 mm 0.0 W/m2 CLR
01:56 -15.3 °C -17.2 °C 34760.7 hPa WNW 50.7 km/h 50.7 km/h 79 % 0 mm 0.0 W/m2 CLR
02:01 -15.3 °C -17.2 °C 34760.7 hPa WNW 38.8 km/h 41.4 km/h 79 % 0 mm 0.0 W/m2 CLR
02:06 -15.3 °C -17.2 °C 34760.7 hPa WNW 53.6 km/h 53.6 km/h 79 % 0 mm 0.0 W/m2 CLR
02:11 -15.3 °C -17.1 °C 34760.7 hPa NW 59.5 km/h 59.5 km/h 79 % 0 mm 0.0 W/m2 CLR
02:16 -15.2 °C -17.2 °C 34760.7 hPa NW 54.4 km/h 54.4 km/h 78 % 0 mm 0.0 W/m2 CLR
02:21 -15.2 °C -17.1 °C 34760.7 hPa NW 44.7 km/h 44.7 km/h 79 % 0 mm 0.0 W/m2 CLR
02:26 -15.2 °C -17.1 °C 34760.7 hPa NW 47.6 km/h 47.6 km/h 79 % 0 mm 0.0 W/m2 CLR
02:31 -15.2 °C -17.1 °C 34750.5 hPa NW 50.7 km/h 50.7 km/h 79 % 0 mm 0.0 W/m2 CLR
02:36 -15.2 °C -17.1 °C 34750.5 hPa NW 50.7 km/h 50.7 km/h 79 % 0 mm 0.0 W/m2 CLR
02:41 -15.3 °C -17.1 °C 34750.5 hPa NW 41.7 km/h 43.5 km/h 79 % 0 mm 0.0 W/m2 CLR
02:46 -15.2 °C -17.1 °C 34750.5 hPa NW 38.8 km/h 41.7 km/h 79 % 0 mm 0.0 W/m2 CLR
02:51 -15.2 °C -17 °C 34750.5 hPa NW 38.8 km/h 38.8 km/h 80 % 0 mm 0.0 W/m2 CLR
02:56 -15.3 °C -17.1 °C 34750.5 hPa NW 44.7 km/h 44.7 km/h 80 % 0 mm 0.0 W/m2 CLR
03:01 -15.3 °C -17.1 °C 34760.7 hPa NW 41.7 km/h 41.7 km/h 80 % 0 mm 0.0 W/m2 CLR
03:06 -15.4 °C -17.1 °C 34750.5 hPa NW 29.8 km/h 29.8 km/h 80 % 0 mm 0.0 W/m2 CLR
03:11 -15.4 °C -17.1 °C 34750.5 hPa NW 56.6 km/h 56.6 km/h 81 % 0 mm 0.0 W/m2 CLR
03:16 -15.4 °C -17.1 °C 34750.5 hPa NW 46.7 km/h 46.7 km/h 81 % 0 mm 0.0 W/m2 CLR
03:21 -15.4 °C -17.1 °C 34750.5 hPa NW 50.7 km/h 50.7 km/h 81 % 0 mm 0.0 W/m2 CLR
03:26 -15.4 °C -17.1 °C 34750.5 hPa WNW 53.6 km/h 53.6 km/h 81 % 0 mm 0.0 W/m2 CLR
03:31 -15.4 °C -17.1 °C 34750.5 hPa NW 50.7 km/h 50.7 km/h 81 % 0 mm 0.0 W/m2 CLR
03:37 -15.4 °C -17.1 °C 34750.5 hPa NW 41.7 km/h 41.7 km/h 81 % 0 mm 0.0 W/m2 CLR
03:42 -15.4 °C -17.1 °C 34750.5 hPa NW 38.8 km/h 38.8 km/h 81 % 0 mm 0.0 W/m2 CLR
03:47 -15.5 °C -17.1 °C 34750.5 hPa NW 26.9 km/h 26.9 km/h 81 % 0 mm 0.0 W/m2 CLR
03:52 -15.5 °C -17.1 °C 34750.5 hPa NW 33.6 km/h 33.6 km/h 82 % 0 mm 0.0 W/m2 CLR
03:57 -15.4 °C -17 °C 34750.5 hPa NW 38.8 km/h 38.8 km/h 82 % 0 mm 0.0 W/m2 CLR
04:02 -15.4 °C -16.9 °C 34750.5 hPa NW 41.7 km/h 41.7 km/h 82 % 0 mm 0.0 W/m2 CLR
04:07 -15.4 °C -17 °C 34740.4 hPa NW 35.7 km/h 36.5 km/h 82 % 0 mm 0.0 W/m2 CLR
04:12 -15.4 °C -17 °C 34740.4 hPa NW 38.8 km/h 38.8 km/h 82 % 0 mm 0.0 W/m2 CLR
04:17 -15.5 °C -17.1 °C 34740.4 hPa NW 33.6 km/h 34.9 km/h 82 % 0 mm 0.0 W/m2 CLR
04:22 -15.6 °C -17.1 °C 34726.8 hPa NW 29.8 km/h 29.8 km/h 82 % 0 mm 0.0 W/m2 CLR
04:27 -15.5 °C -16.9 °C 34726.8 hPa NW 59.5 km/h 59.5 km/h 83 % 0 mm 0.0 W/m2 CLR
04:32 -15.4 °C -17 °C 34726.8 hPa NW 50.7 km/h 50.7 km/h 82 % 0 mm 0.0 W/m2 CLR
04:37 -15.4 °C -17 °C 34726.8 hPa NW 38.8 km/h 38.8 km/h 82 % 0 mm 0.0 W/m2 CLR
04:42 -15.4 °C -16.9 °C 34726.8 hPa WNW 59.5 km/h 59.5 km/h 82 % 0 mm 0.0 W/m2 CLR
04:47 -15.4 °C -17 °C 34726.8 hPa WNW 38.8 km/h 38.8 km/h 82 % 0 mm 0.0 W/m2 CLR
04:52 -15.4 °C -17 °C 34726.8 hPa WNW 41.7 km/h 41.7 km/h 82 % 0 mm 0.0 W/m2 CLR
04:57 -15.4 °C -17 °C 34726.8 hPa NW 38.8 km/h 38.8 km/h 82 % 0 mm 0.0 W/m2 CLR
05:02 -15.4 °C -17 °C 34716.7 hPa NW 50.7 km/h 50.7 km/h 82 % 0 mm 0.0 W/m2 CLR
05:07 -15.4 °C -17 °C 34716.7 hPa NW 41.7 km/h 41.7 km/h 82 % 0 mm 0.0 W/m2 CLR
05:12 -15.4 °C -17 °C 34716.7 hPa WNW 44.7 km/h 44.7 km/h 82 % 0 mm 0.0 W/m2 CLR
05:17 -15.4 °C -17 °C 34716.7 hPa NW 32.8 km/h 32.8 km/h 82 % 0 mm 0.0 W/m2 CLR
05:22 -15.4 °C -17 °C 34716.7 hPa WNW 50.7 km/h 50.7 km/h 82 % 0 mm 0.0 W/m2 CLR
05:27 -15.4 °C -16.9 °C 34716.7 hPa NW 38.8 km/h 38.8 km/h 82 % 0 mm 0.0 W/m2 CLR
05:32 -15.4 °C -16.9 °C 34716.7 hPa NW 50.7 km/h 50.7 km/h 82 % 0 mm 0.0 W/m2 CLR
05:37 -15.4 °C -16.9 °C 34716.7 hPa WNW 49.2 km/h 49.2 km/h 82 % 0 mm 0.0 W/m2 CLR
05:42 -15.4 °C -16.9 °C 34716.7 hPa NW 53.6 km/h 53.6 km/h 82 % 0 mm 0.0 W/m2 CLR
05:47 -15.3 °C -16.9 °C 34716.7 hPa NW 62.6 km/h 62.6 km/h 82 % 0 mm 0.0 W/m2 CLR
05:52 -15.4 °C -16.9 °C 34716.7 hPa NW 50.7 km/h 50.7 km/h 82 % 0 mm 0.0 W/m2 CLR
05:57 -15.4 °C -16.8 °C 34716.7 hPa NW 53.6 km/h 53.6 km/h 83 % 0 mm 0.0 W/m2 CLR
06:02 -15.4 °C -16.9 °C 34703.1 hPa NW 50.7 km/h 50.7 km/h 83 % 0 mm 0.0 W/m2 CLR
06:07 -15.4 °C -16.9 °C 34703.1 hPa NW 53.6 km/h 53.6 km/h 83 % 0 mm 0.0 W/m2 CLR
06:12 -15.5 °C -16.9 °C 34703.1 hPa NW 44.7 km/h 44.7 km/h 83 % 0 mm 0.0 W/m2 CLR
06:17 -15.5 °C -16.9 °C 34703.1 hPa NW 50.7 km/h 50.7 km/h 83 % 0 mm 0.0 W/m2 CLR
06:22 -15.4 °C -16.9 °C 34703.1 hPa NW 50.7 km/h 50.7 km/h 83 % 0 mm 0.0 W/m2 CLR
06:27 -15.4 °C -16.9 °C 34716.7 hPa WNW 53.6 km/h 53.6 km/h 83 % 0 mm 0.0 W/m2 CLR
06:32 -15.5 °C -16.9 °C 34703.1 hPa NW 56.6 km/h 56.6 km/h 83 % 0 mm 0.0 W/m2 CLR
06:37 -15.4 °C -16.9 °C 34716.7 hPa NW 62.6 km/h 62.6 km/h 83 % 0 mm 0.0 W/m2 CLR
06:42 -15.4 °C -16.8 °C 34716.7 hPa NW 50.7 km/h 50.7 km/h 83 % 0 mm 0.0 W/m2 CLR
06:47 -15.4 °C -16.9 °C 34716.7 hPa NW 47.6 km/h 47.6 km/h 83 % 0 mm 0.0 W/m2 CLR
06:52 -15.4 °C -16.9 °C 34716.7 hPa NW 38.8 km/h 38.8 km/h 83 % 0 mm 0.0 W/m2 CLR
06:57 -15.4 °C -16.8 °C 34703.1 hPa WNW 62.6 km/h 62.6 km/h 83 % 0 mm 0.0 W/m2 CLR
07:03 -15.4 °C -16.8 °C 34703.1 hPa NW 50.7 km/h 50.7 km/h 83 % 0 mm 0.0 W/m2 CLR
07:08 -15.4 °C -16.8 °C 34716.7 hPa NW 56.6 km/h 56.6 km/h 83 % 0 mm 0.0 W/m2 CLR
07:13 -15.4 °C -16.8 °C 34703.1 hPa NW 56.6 km/h 56.6 km/h 83 % 0 mm 0.0 W/m2 CLR
07:18 -15.4 °C -16.9 °C 34703.1 hPa NW 47.6 km/h 47.6 km/h 83 % 0 mm 0.0 W/m2 CLR
07:23 -15.4 °C -16.9 °C 34716.7 hPa NW 50.7 km/h 50.7 km/h 83 % 0 mm 0.0 W/m2 CLR
07:28 -15.4 °C -16.8 °C 34703.1 hPa NW 50.7 km/h 50.7 km/h 83 % 0 mm 0.0 W/m2 CLR
07:33 -15.4 °C -16.8 °C 34703.1 hPa NW 50.7 km/h 50.7 km/h 83 % 0 mm 0.0 W/m2 CLR
07:38 -15.4 °C -16.8 °C 34703.1 hPa NW 50.7 km/h 50.7 km/h 83 % 0 mm 0.0 W/m2 CLR
07:43 -15.3 °C -16.8 °C 34703.1 hPa NW 62.6 km/h 62.6 km/h 83 % 0 mm 0.0 W/m2 CLR
07:48 -15.3 °C -16.8 °C 34703.1 hPa NW 56.6 km/h 56.6 km/h 83 % 0 mm 0.0 W/m2 CLR
07:53 -15.3 °C -16.7 °C 34703.1 hPa NW 59.5 km/h 59.5 km/h 83 % 0 mm 0.0 W/m2 CLR
07:58 -15.2 °C -16.8 °C 34703.1 hPa NW 53.6 km/h 53.6 km/h 82 % 0 mm 0.0 W/m2 CLR
08:03 -15.2 °C -16.8 °C 34716.7 hPa NW 71.5 km/h 71.5 km/h 82 % 0 mm 0.0 W/m2 CLR
08:08 -15.1 °C -16.7 °C 34716.7 hPa NW 50.7 km/h 50.7 km/h 82 % 0 mm 0.0 W/m2 CLR
08:13 -15.1 °C -16.7 °C 34716.7 hPa NW 59.5 km/h 59.5 km/h 82 % 0 mm 5.0 W/m2 CLR
08:18 -15.1 °C -16.6 °C 34703.1 hPa NW 59.5 km/h 59.5 km/h 82 % 0 mm 5.0 W/m2 CLR
08:23 -15.1 °C -16.6 °C 34703.1 hPa NW 62.6 km/h 62.6 km/h 82 % 0 mm 5.0 W/m2 BKN
08:28 -15 °C -16.6 °C 34703.1 hPa NW 62.1 km/h 62.1 km/h 82 % 0 mm 7.0 W/m2 BKN
08:33 -14.9 °C -16.6 °C 34703.1 hPa NW 56.6 km/h 56.6 km/h 82 % 0 mm 11.0 W/m2 BKN
08:38 -15 °C -16.6 °C 34703.1 hPa NW 49.2 km/h 49.2 km/h 82 % 0 mm 16.0 W/m2 BKN
08:43 -14.9 °C -16.6 °C 34703.1 hPa NW 50.7 km/h 50.7 km/h 82 % 0 mm 23.0 W/m2 BKN
08:48 -14.9 °C -16.5 °C 34703.1 hPa NW 46.7 km/h 46.7 km/h 82 % 0 mm 28.0 W/m2 BKN
08:53 -14.9 °C -16.5 °C 34703.1 hPa NW 68.6 km/h 68.6 km/h 82 % 0 mm 33.0 W/m2 BKN
08:58 -14.9 °C -16.6 °C 34703.1 hPa NW 67.3 km/h 67.3 km/h 81 % 0 mm 39.0 W/m2 BKN
09:03 -14.8 °C -16.5 °C 34703.1 hPa NW 62.6 km/h 62.6 km/h 81 % 0 mm 42.0 W/m2 BKN
09:08 -14.8 °C -16.5 °C 34703.1 hPa NW 68.6 km/h 68.6 km/h 81 % 0 mm 46.0 W/m2 BKN
09:13 -14.8 °C -16.5 °C 34703.1 hPa NW 50.7 km/h 50.7 km/h 81 % 0 mm 51.0 W/m2 BKN
09:18 -14.8 °C -16.5 °C 34703.1 hPa NW 68.6 km/h 68.6 km/h 81 % 0 mm 54.0 W/m2 BKN
09:23 -14.8 °C -16.4 °C 34716.7 hPa NW 56.6 km/h 56.6 km/h 81 % 0 mm 56.0 W/m2 BKN
09:28 -14.8 °C -16.4 °C 34716.7 hPa NW 59.5 km/h 59.5 km/h 81 % 0 mm 62.0 W/m2 BKN
09:33 -14.7 °C -16.4 °C 34716.7 hPa NW 68.6 km/h 68.6 km/h 80 % 0 mm 128.0 W/m2 BKN
09:38 -14.6 °C -16.3 °C 34716.7 hPa NW 59.5 km/h 59.5 km/h 80 % 0 mm 134.0 W/m2 BKN
09:43 -14.5 °C -16.4 °C 34716.7 hPa NW 68.6 km/h 68.6 km/h 79 % 0 mm 118.0 W/m2 BKN
09:48 -14.5 °C -16.5 °C 34703.1 hPa NNW 56.6 km/h 56.6 km/h 78 % 0 mm 120.0 W/m2 BKN
09:53 -14.4 °C -16.4 °C 34716.7 hPa NW 65.5 km/h 65.5 km/h 78 % 0 mm 153.0 W/m2 BKN
09:58 -14.3 °C -16.3 °C 34716.7 hPa NW 50.7 km/h 50.7 km/h 78 % 0 mm 139.0 W/m2 BKN
10:03 -14.3 °C -16.3 °C 34716.7 hPa NW 74.5 km/h 74.5 km/h 77 % 0 mm 132.0 W/m2 BKN
10:08 -14.2 °C -16.3 °C 34716.7 hPa NW 65.5 km/h 65.5 km/h 76 % 0 mm 137.0 W/m2 BKN
10:13 -14.1 °C -16.3 °C 34716.7 hPa NW 54.4 km/h 54.4 km/h 76 % 0 mm 186.0 W/m2 BKN
10:18 -14.1 °C -16.2 °C 34716.7 hPa NW 68.6 km/h 68.6 km/h 76 % 0 mm 269.0 W/m2 SCT
10:23 -13.9 °C -16.2 °C 34716.7 hPa NW 71.5 km/h 71.5 km/h 75 % 0 mm 251.0 W/m2 SCT
10:28 -13.8 °C -16.3 °C 34716.7 hPa NW 65.5 km/h 65.5 km/h 74 % 0 mm 299.0 W/m2 FEW
10:33 -13.8 °C -16.3 °C 34716.7 hPa NW 68.6 km/h 68.6 km/h 73 % 0 mm 304.0 W/m2 FEW
10:38 -13.7 °C -16.3 °C 34716.7 hPa NW 53.6 km/h 53.6 km/h 72 % 0 mm 267.0 W/m2 FEW
10:43 -13.7 °C -16.3 °C 34716.7 hPa NW 59.5 km/h 59.5 km/h 72 % 0 mm 313.0 W/m2 SCT
10:48 -13.7 °C -16.3 °C 34716.7 hPa NW 68.6 km/h 68.6 km/h 72 % 0 mm 309.0 W/m2 SCT
10:53 -13.6 °C -16.3 °C 34716.7 hPa NNW 98.3 km/h 98.3 km/h 71 % 0 mm 283.0 W/m2 FEW
10:58 -13.7 °C -16.4 °C 34716.7 hPa NNW 68.6 km/h 68.6 km/h 71 % 0 mm 338.0 W/m2 SCT
11:03 -13.5 °C -16.3 °C 34716.7 hPa NNW 67.3 km/h 67.3 km/h 71 % 0 mm 350.0 W/m2 FEW
11:08 -13.5 °C -16.2 °C 34716.7 hPa NNW 68.6 km/h 68.6 km/h 71 % 0 mm 359.0 W/m2 FEW
11:13 -13.4 °C -16.3 °C 34716.7 hPa NW 80.5 km/h 80.5 km/h 70 % 0 mm 294.0 W/m2 FEW
11:18 -13.4 °C -16.3 °C 34716.7 hPa NNW 80.3 km/h 80.3 km/h 70 % 0 mm 350.0 W/m2 FEW
11:23 -13.4 °C -16.2 °C 34716.7 hPa NNW 89.3 km/h 89.3 km/h 70 % 0 mm 374.0 W/m2 FEW
11:28 -13.4 °C -16.2 °C 34716.7 hPa NW 90.6 km/h 90.6 km/h 70 % 0 mm 381.0 W/m2 FEW
11:33 -13.3 °C -16.2 °C 34716.7 hPa NW 92.4 km/h 92.4 km/h 70 % 0 mm 385.0 W/m2 FEW
11:38 -13.3 °C -16.2 °C 34716.7 hPa NW 77.4 km/h 77.4 km/h 69 % 0 mm 396.0 W/m2 FEW
11:43 -13.2 °C -16.2 °C 34716.7 hPa NNW 86.4 km/h 86.4 km/h 69 % 0 mm 401.0 W/m2 FEW
11:48 -13.1 °C -16.1 °C 34703.1 hPa NW 71.5 km/h 71.5 km/h 69 % 0 mm 408.0 W/m2 FEW
11:53 -12.9 °C -16.1 °C 34703.1 hPa NNW 59.5 km/h 59.5 km/h 68 % 0 mm 413.0 W/m2 FEW
11:58 -12.9 °C -16.2 °C 34703.1 hPa NNW 71.5 km/h 71.5 km/h 66 % 0 mm 417.0 W/m2 FEW
12:03 -12.9 °C -16.2 °C 34703.1 hPa NNW 80.5 km/h 80.5 km/h 66 % 0 mm 411.0 W/m2 FEW
12:08 -12.9 °C -16.2 °C 34703.1 hPa NNW 74.5 km/h 74.5 km/h 66 % 0 mm 429.0 W/m2 FEW
12:13 -12.7 °C -16.2 °C 34703.1 hPa NNW 72.6 km/h 72.6 km/h 65 % 0 mm 432.0 W/m2 FEW
12:18 -12.7 °C -16.2 °C 34703.1 hPa NNW 71.5 km/h 71.5 km/h 65 % 0 mm 436.0 W/m2 CLR
12:23 -12.6 °C -16.1 °C 34703.1 hPa NNW 54.4 km/h 54.6 km/h 65 % 0 mm 441.0 W/m2 CLR
12:28 -12.7 °C -16.1 °C 34693 hPa NNW 92.4 km/h 92.4 km/h 65 % 0 mm 445.0 W/m2 CLR
12:34 -12.7 °C -16.2 °C 34693 hPa NNW 62.1 km/h 62.1 km/h 65 % 0 mm 446.0 W/m2 CLR
12:39 -12.7 °C -16.1 °C 34693 hPa NW 80.5 km/h 80.5 km/h 65 % 0 mm 450.0 W/m2 CLR
12:44 -12.6 °C -16 °C 34693 hPa NW 50.7 km/h 50.7 km/h 65 % 0 mm 455.0 W/m2 CLR
12:49 -12.5 °C -16.1 °C 34693 hPa NW 77.4 km/h 77.4 km/h 64 % 0 mm 454.0 W/m2 CLR
12:54 -12.6 °C -16.2 °C 34693 hPa NW 89.3 km/h 89.3 km/h 64 % 0 mm 459.0 W/m2 CLR
12:59 -12.6 °C -16.2 °C 34693 hPa NNW 83.4 km/h 83.4 km/h 64 % 0 mm 464.0 W/m2 CLR
13:04 -12.6 °C -16.2 °C 34693 hPa NNW 85.5 km/h 85.5 km/h 64 % 0 mm 457.0 W/m2 CLR
13:09 -12.6 °C -16.2 °C 34682.8 hPa NNW 50.7 km/h 50.7 km/h 64 % 0 mm 462.0 W/m2 CLR
13:14 -12.4 °C -16 °C 34682.8 hPa NW 65.5 km/h 65.5 km/h 64 % 0 mm 464.0 W/m2 CLR
13:19 -12.4 °C -16 °C 34682.8 hPa NW 68.6 km/h 68.6 km/h 64 % 0 mm 466.0 W/m2 CLR
13:24 -12.3 °C -16.1 °C 34669.3 hPa NW 62.6 km/h 62.6 km/h 63 % 0 mm 434.0 W/m2 CLR
13:29 -12.3 °C -16 °C 34669.3 hPa NW 67.3 km/h 67.3 km/h 63 % 0 mm 464.0 W/m2 CLR
13:34 -12.2 °C -15.9 °C 34659.1 hPa NW 53.6 km/h 53.6 km/h 63 % 0 mm 468.0 W/m2 CLR
13:39 -12.1 °C -15.8 °C 34659.1 hPa NW 54.4 km/h 54.4 km/h 63 % 0 mm 445.0 W/m2 CLR
13:44 -12.1 °C -16.1 °C 34659.1 hPa NW 68.6 km/h 68.6 km/h 61 % 0 mm 452.0 W/m2 CLR
13:49 -12 °C -16.2 °C 34645.6 hPa NW 56.6 km/h 56.6 km/h 60 % 0 mm 450.0 W/m2 CLR
13:54 -12 °C -16.1 °C 34645.6 hPa NW 56.6 km/h 56.6 km/h 60 % 0 mm 454.0 W/m2 CLR
13:59 -11.8 °C -16.1 °C 34645.6 hPa NW 59.5 km/h 59.5 km/h 59 % 0 mm 452.0 W/m2 CLR
14:04 -11.8 °C -16.2 °C 34635.4 hPa NW 74.5 km/h 74.5 km/h 58 % 0 mm 446.0 W/m2 CLR
14:09 -11.8 °C -16.4 °C 34645.6 hPa NW 62.6 km/h 62.6 km/h 57 % 0 mm 450.0 W/m2 CLR
14:14 -11.8 °C -16.3 °C 34635.4 hPa NW 65.5 km/h 65.5 km/h 57 % 0 mm 441.0 W/m2 CLR
14:19 -11.6 °C -16.3 °C 34635.4 hPa NW 49.2 km/h 49.2 km/h 56 % 0 mm 438.0 W/m2 CLR
14:24 -11.6 °C -16.6 °C 34625.2 hPa NW 71.5 km/h 71.5 km/h 54 % 0 mm 373.0 W/m2 CLR
14:29 -11.6 °C -16.8 °C 34635.4 hPa NW 71.5 km/h 71.5 km/h 52 % 0 mm 385.0 W/m2 CLR
14:34 -11.6 °C -16.7 °C 34635.4 hPa NW 80.5 km/h 80.5 km/h 53 % 0 mm 483.0 W/m2 CLR
14:39 -11.5 °C -16.6 °C 34635.4 hPa NNW 68.6 km/h 68.6 km/h 53 % 0 mm 443.0 W/m2 CLR
14:44 -11.6 °C -16.7 °C 34635.4 hPa NNW 59.5 km/h 59.5 km/h 53 % 0 mm 452.0 W/m2 CLR
14:49 -11.6 °C -16.7 °C 34645.6 hPa NNW 86.4 km/h 86.4 km/h 53 % 0 mm 362.0 W/m2 CLR
14:54 -11.7 °C -16.7 °C 34645.6 hPa NW 65.5 km/h 65.5 km/h 54 % 0 mm 332.0 W/m2 CLR
14:59 -11.8 °C -16.7 °C 34645.6 hPa NW 77.4 km/h 77.4 km/h 54 % 0 mm 313.0 W/m2 CLR
15:04 -11.8 °C -16.6 °C 34645.6 hPa NW 68.6 km/h 68.6 km/h 55 % 0 mm 334.0 W/m2 CLR
15:09 -11.9 °C -16.8 °C 34645.6 hPa NW 88 km/h 88 km/h 54 % 0 mm 229.0 W/m2 CLR
15:14 -11.9 °C -16.9 °C 34645.6 hPa NW 59.5 km/h 59.5 km/h 54 % 0 mm 220.0 W/m2 CLR
15:19 -11.9 °C -16.8 °C 34645.6 hPa NW 89.3 km/h 89.3 km/h 54 % 0 mm 320.0 W/m2 CLR
15:24 -12 °C -17 °C 34659.1 hPa NW 107.2 km/h 107.2 km/h 54 % 0 mm 223.0 W/m2 FEW
15:29 -12.1 °C -17 °C 34659.1 hPa NW 74.5 km/h 74.5 km/h 54 % 0 mm 229.0 W/m2 SCT
15:35 -12 °C -16.9 °C 34645.6 hPa NW 59.5 km/h 61.3 km/h 54 % 0 mm 345.0 W/m2 SCT
15:39 -12.1 °C -17 °C 34659.1 hPa NW 86.4 km/h 86.4 km/h 54 % 0 mm 179.0 W/m2 FEW
15:45 -12.1 °C -16.9 °C 34659.1 hPa NW 74.5 km/h 74.5 km/h 55 % 0 mm 315.0 W/m2 CLR
15:50 -12 °C -16.8 °C 34659.1 hPa NW 77.4 km/h 77.4 km/h 55 % 0 mm 315.0 W/m2 CLR
15:55 -11.9 °C -16.8 °C 34659.1 hPa NW 86.4 km/h 86.4 km/h 54 % 0 mm 387.0 W/m2 CLR
16:00 -11.9 °C -16.9 °C 34659.1 hPa NW 83.4 km/h 83.4 km/h 54 % 0 mm 323.0 W/m2 CLR
16:05 -11.9 °C -16.9 °C 34659.1 hPa NW 74.5 km/h 74.5 km/h 54 % 0 mm 306.0 W/m2 CLR
16:10 -11.9 °C -16.9 °C 34669.3 hPa NW 77.4 km/h 77.4 km/h 54 % 0 mm 274.0 W/m2 CLR
16:15 -12.1 °C -16.8 °C 34669.3 hPa NW 65.5 km/h 65.5 km/h 55 % 0 mm 258.0 W/m2 CLR
16:20 -12.2 °C -17 °C 34669.3 hPa NW 80.5 km/h 80.5 km/h 55 % 0 mm 213.0 W/m2 CLR
16:25 -12.2 °C -16.9 °C 34669.3 hPa NW 65.5 km/h 65.5 km/h 56 % 0 mm 197.0 W/m2 CLR
16:30 -12.3 °C -16.9 °C 34669.3 hPa NNW 74.5 km/h 74.5 km/h 56 % 0 mm 172.0 W/m2 CLR
16:35 -12.3 °C -16.8 °C 34669.3 hPa NNW 74.5 km/h 74.5 km/h 57 % 0 mm 120.0 W/m2 CLR
16:40 -12.4 °C -16.9 °C 34669.3 hPa NW 74.5 km/h 74.5 km/h 57 % 0 mm 144.0 W/m2 CLR
16:45 -12.4 °C -16.8 °C 34669.3 hPa NW 80.5 km/h 80.5 km/h 58 % 0 mm 144.0 W/m2 CLR
16:50 -12.5 °C -16.7 °C 34669.3 hPa NW 82.9 km/h 82.9 km/h 59 % 0 mm 111.0 W/m2 CLR
16:55 -12.6 °C -16.8 °C 34669.3 hPa NW 104.3 km/h 104.3 km/h 59 % 0 mm 97.0 W/m2 CLR
17:00 -12.6 °C -16.8 °C 34669.3 hPa NW 80.5 km/h 80.5 km/h 59 % 0 mm 83.0 W/m2 CLR
17:05 -12.7 °C -16.8 °C 34669.3 hPa NW 80.5 km/h 80.5 km/h 60 % 0 mm 60.0 W/m2 CLR
17:10 -12.7 °C -16.7 °C 34682.8 hPa NW 80.5 km/h 80.5 km/h 61 % 0 mm 35.0 W/m2 CLR
17:15 -12.8 °C -16.8 °C 34682.8 hPa NW 83.4 km/h 83.4 km/h 61 % 0 mm 23.0 W/m2 OVC
17:20 -12.9 °C -16.7 °C 34682.8 hPa NW 74.5 km/h 74.5 km/h 62 % 0 mm 18.0 W/m2 OVC
17:25 -13 °C -16.7 °C 34682.8 hPa NW 53.6 km/h 53.6 km/h 63 % 0 mm 14.0 W/m2 OVC
17:30 -13.1 °C -16.8 °C 34682.8 hPa NW 69.8 km/h 69.8 km/h 63 % 0 mm 14.0 W/m2 OVC
17:35 -13.1 °C -16.8 °C 34682.8 hPa NW 53.6 km/h 53.6 km/h 63 % 0 mm 12.0 W/m2 OVC
17:40 -13.2 °C -16.7 °C 34682.8 hPa NW 71.5 km/h 71.5 km/h 64 % 0 mm 12.0 W/m2 OVC
17:45 -13.2 °C -16.6 °C 34682.8 hPa NW 57 km/h 57 km/h 65 % 0 mm 14.0 W/m2 OVC
17:50 -13.2 °C -16.7 °C 34682.8 hPa NW 68.6 km/h 68.6 km/h 65 % 0 mm 11.0 W/m2 OVC
17:55 -13.2 °C -16.6 °C 34682.8 hPa NW 80.5 km/h 80.5 km/h 66 % 0 mm 7.0 W/m2 OVC
18:00 -13.2 °C -16.6 °C 34682.8 hPa NW 65.5 km/h 65.5 km/h 66 % 0 mm 0.0 W/m2 CLR
18:05 -13.3 °C -16.5 °C 34693 hPa NW 65.5 km/h 65.5 km/h 67 % 0 mm 0.0 W/m2 CLR
18:10 -13.3 °C -16.6 °C 34693 hPa NW 71.5 km/h 71.5 km/h 67 % 0 mm 0.0 W/m2 CLR
18:15 -13.4 °C -16.5 °C 34693 hPa NW 74.5 km/h 74.5 km/h 68 % 0 mm 0.0 W/m2 CLR
18:20 -13.4 °C -16.6 °C 34693 hPa NW 50.7 km/h 50.7 km/h 68 % 0 mm 0.0 W/m2 CLR
18:25 -13.5 °C -16.4 °C 34693 hPa NW 68.6 km/h 68.6 km/h 69 % 0 mm 0.0 W/m2 CLR
18:30 -13.5 °C -16.4 °C 34693 hPa NW 53.6 km/h 53.6 km/h 69 % 0 mm 0.0 W/m2 CLR
18:35 -13.5 °C -16.5 °C 34703.1 hPa NW 50.7 km/h 50.7 km/h 69 % 0 mm 0.0 W/m2 CLR
18:40 -13.6 °C -16.4 °C 34703.1 hPa NW 50.7 km/h 50.7 km/h 70 % 0 mm 0.0 W/m2 CLR
18:45 -13.7 °C -16.4 °C 34703.1 hPa NW 46.7 km/h 46.7 km/h 71 % 0 mm 0.0 W/m2 CLR
18:50 -13.7 °C -16.4 °C 34703.1 hPa NW 56.6 km/h 56.6 km/h 71 % 0 mm 0.0 W/m2 CLR
18:55 -13.7 °C -16.3 °C 34703.1 hPa NW 50.7 km/h 51.3 km/h 72 % 0 mm 0.0 W/m2 CLR
19:00 -13.7 °C -16.3 °C 34703.1 hPa NW 68.6 km/h 68.6 km/h 72 % 0 mm 0.0 W/m2 CLR
19:05 -13.8 °C -16.4 °C 34703.1 hPa NW 41.7 km/h 41.7 km/h 72 % 0 mm 0.0 W/m2 CLR
19:10 -13.8 °C -16.3 °C 34703.1 hPa NW 54.4 km/h 54.4 km/h 73 % 0 mm 0.0 W/m2 CLR
19:15 -13.8 °C -16.3 °C 34703.1 hPa NW 68.6 km/h 68.6 km/h 73 % 0 mm 0.0 W/m2 CLR
19:20 -13.8 °C -16.3 °C 34703.1 hPa NW 71.5 km/h 71.5 km/h 73 % 0 mm 0.0 W/m2 CLR
19:25 -13.8 °C -16.3 °C 34703.1 hPa NW 80.5 km/h 80.5 km/h 73 % 0 mm 0.0 W/m2 CLR
19:30 -13.8 °C -16.3 °C 34703.1 hPa NW 71.5 km/h 71.5 km/h 73 % 0 mm 0.0 W/m2 CLR
19:35 -13.8 °C -16.3 °C 34703.1 hPa NW 62.6 km/h 62.6 km/h 73 % 0 mm 0.0 W/m2 CLR
19:40 -13.8 °C -16.3 °C 34703.1 hPa NW 65.5 km/h 65.5 km/h 73 % 0 mm 0.0 W/m2 CLR
19:45 -13.9 °C -16.4 °C 34703.1 hPa NW 56.6 km/h 56.6 km/h 73 % 0 mm 0.0 W/m2 CLR
19:50 -13.9 °C -16.3 °C 34703.1 hPa NW 68.6 km/h 68.6 km/h 74 % 0 mm 0.0 W/m2 CLR
19:55 -13.9 °C -16.3 °C 34703.1 hPa NW 71.5 km/h 71.5 km/h 74 % 0 mm 0.0 W/m2 CLR
19:56 -13.9 °C -16.3 °C 34703.1 hPa NW 62.6 km/h 62.6 km/h 74 % 0 mm 0.0 W/m2 CLR
20:01 -13.9 °C -16.3 °C 34703.1 hPa NW 54.4 km/h 54.4 km/h 74 % 0 mm 0.0 W/m2 CLR
20:06 -13.9 °C -16.3 °C 34703.1 hPa NW 68.6 km/h 68.6 km/h 74 % 0 mm 0.0 W/m2 CLR
20:11 -13.9 °C -16.3 °C 34703.1 hPa NW 77.4 km/h 77.4 km/h 74 % 0 mm 0.0 W/m2 CLR
20:16 -13.9 °C -16.3 °C 34703.1 hPa NW 62.6 km/h 62.6 km/h 74 % 0 mm 0.0 W/m2 CLR
20:21 -14 °C -16.4 °C 34703.1 hPa NW 65.5 km/h 65.5 km/h 74 % 0 mm 0.0 W/m2 CLR
20:26 -14 °C -16.4 °C 34703.1 hPa NW 83.4 km/h 83.4 km/h 74 % 0 mm 0.0 W/m2 CLR
20:31 -14 °C -16.4 °C 34703.1 hPa NW 59.5 km/h 59.5 km/h 74 % 0 mm 0.0 W/m2 CLR
20:36 -14 °C -16.4 °C 34703.1 hPa NW 68.6 km/h 68.6 km/h 74 % 0 mm 0.0 W/m2 CLR
20:41 -14 °C -16.4 °C 34703.1 hPa NW 56.6 km/h 56.6 km/h 74 % 0 mm 0.0 W/m2 CLR
20:46 -14.1 °C -16.4 °C 34703.1 hPa NW 57 km/h 57 km/h 74 % 0 mm 0.0 W/m2 CLR
20:51 -14 °C -16.4 °C 34703.1 hPa NW 62.6 km/h 62.6 km/h 74 % 0 mm 0.0 W/m2 CLR
20:56 -14 °C -16.4 °C 34703.1 hPa NNW 68.6 km/h 68.6 km/h 74 % 0 mm 0.0 W/m2 CLR
21:01 -14 °C -16.4 °C 34703.1 hPa NW 68.6 km/h 68.6 km/h 74 % 0 mm 0.0 W/m2 CLR
21:06 -14 °C -16.4 °C 34703.1 hPa NW 62.1 km/h 62.1 km/h 74 % 0 mm 0.0 W/m2 CLR
21:11 -14.1 °C -16.3 °C 34703.1 hPa NW 62.6 km/h 62.6 km/h 75 % 0 mm 0.0 W/m2 CLR
21:16 -14 °C -16.2 °C 34703.1 hPa NW 50.7 km/h 50.7 km/h 76 % 0 mm 0.0 W/m2 CLR
21:21 -14 °C -16.2 °C 34703.1 hPa NW 80.5 km/h 80.5 km/h 76 % 0 mm 0.0 W/m2 CLR
21:26 -14 °C -16.2 °C 34693 hPa NW 80.5 km/h 80.5 km/h 76 % 0 mm 0.0 W/m2 CLR
21:31 -14 °C -16.2 °C 34693 hPa NW 75.2 km/h 75.2 km/h 76 % 0 mm 0.0 W/m2 CLR
21:36 -13.9 °C -16.2 °C 34703.1 hPa NW 65.5 km/h 65.5 km/h 76 % 0 mm 0.0 W/m2 CLR
21:41 -14 °C -16.2 °C 34703.1 hPa NW 68.6 km/h 68.6 km/h 76 % 0 mm 0.0 W/m2 CLR
21:46 -14 °C -16.2 °C 34703.1 hPa NW 53.6 km/h 53.6 km/h 76 % 0 mm 0.0 W/m2 CLR
21:51 -14 °C -16.1 °C 34703.1 hPa NW 54.4 km/h 54.4 km/h 77 % 0 mm 0.0 W/m2 CLR
21:56 -14.1 °C -16.2 °C 34703.1 hPa NW 51.8 km/h 51.8 km/h 77 % 0 mm 0.0 W/m2 CLR
22:01 -14.1 °C -16.1 °C 34703.1 hPa WNW 49.2 km/h 49.2 km/h 78 % 0 mm 0.0 W/m2 CLR
22:06 -14.1 °C -16 °C 34703.1 hPa WNW 51.8 km/h 51.8 km/h 78 % 0 mm 0.0 W/m2 CLR
22:11 -14 °C -15.9 °C 34693 hPa WNW 53.6 km/h 53.6 km/h 79 % 0 mm 0.0 W/m2 CLR
22:16 -14 °C -15.9 °C 34703.1 hPa WNW 56.6 km/h 56.6 km/h 79 % 0 mm 0.0 W/m2 CLR
22:21 -14.1 °C -15.9 °C 34703.1 hPa WNW 41.7 km/h 41.7 km/h 79 % 0 mm 0.0 W/m2 CLR
22:26 -14.1 °C -15.8 °C 34703.1 hPa NW 47.6 km/h 47.6 km/h 80 % 0 mm 0.0 W/m2 CLR
22:31 -14.1 °C -15.8 °C 34703.1 hPa WNW 50.7 km/h 50.7 km/h 80 % 0 mm 0.0 W/m2 CLR
22:36 -14.1 °C -15.8 °C 34703.1 hPa NW 44.7 km/h 44.7 km/h 80 % 0 mm 0.0 W/m2 CLR
22:41 -14.1 °C -15.8 °C 34703.1 hPa NW 41.4 km/h 41.4 km/h 80 % 0 mm 0.0 W/m2 CLR
22:46 -14.1 °C -15.8 °C 34703.1 hPa NW 32.8 km/h 32.8 km/h 80 % 0 mm 0.0 W/m2 CLR
22:51 -14.1 °C -15.8 °C 34703.1 hPa NW 38.8 km/h 38.8 km/h 80 % 0 mm 0.0 W/m2 CLR
22:56 -14 °C -15.8 °C 34703.1 hPa NW 59.5 km/h 59.5 km/h 80 % 0 mm 0.0 W/m2 CLR
23:01 -13.9 °C -15.7 °C 34693 hPa NW 68.6 km/h 68.6 km/h 80 % 0 mm 0.0 W/m2 CLR
23:06 -13.9 °C -15.7 °C 34693 hPa NW 47.6 km/h 47.6 km/h 80 % 0 mm 0.0 W/m2 CLR
23:11 -13.9 °C -15.7 °C 34693 hPa NW 44.7 km/h 44.7 km/h 80 % 0 mm 0.0 W/m2 CLR
23:16 -13.9 °C -15.7 °C 34693 hPa NW 44.7 km/h 44.7 km/h 80 % 0 mm 0.0 W/m2 CLR
23:21 -13.8 °C -15.7 °C 34693 hPa NW 59.5 km/h 59.5 km/h 80 % 0 mm 0.0 W/m2 CLR
23:26 -13.9 °C -15.7 °C 34693 hPa NW 59.5 km/h 59.5 km/h 80 % 0 mm 0.0 W/m2 CLR
23:31 -13.9 °C -15.7 °C 34693 hPa NW 53.6 km/h 53.6 km/h 80 % 0 mm 0.0 W/m2 CLR
23:36 -13.9 °C -15.7 °C 34693 hPa NW 62.6 km/h 62.6 km/h 80 % 0 mm 0.0 W/m2 CLR
23:41 -13.9 °C -15.7 °C 34693 hPa NW 50.7 km/h 50.7 km/h 80 % 0 mm 0.0 W/m2 CLR
23:46 -13.9 °C -15.7 °C 34693 hPa NW 38.8 km/h 38.8 km/h 80 % 0 mm 0.0 W/m2 CLR
23:51 -13.9 °C -15.7 °C 34693 hPa NW 44.7 km/h 44.7 km/h 81 % 0 mm 0.0 W/m2 CLR
23:56 -13.9 °C -15.6 °C 34693 hPa NW 59.5 km/h 59.5 km/h 81 % 0 mm 0.0 W/m2 CLR
Lo Temps de Massalio
Compliments of Weather Underground - 1.25 mb